TimeCDT,TemperatureF,Dew PointF,Humidity,Sea Level PressureIn,VisibilityMPH,Wind Direction,Wind SpeedMPH,Gust SpeedMPH,PrecipitationIn,Events,Conditions,WindDirDegrees,DateUTC
12:53 AM,46.9,41.0,80,30.27,10.0,Calm,Calm,-,N/A,,Clear,0,2013-10-13 05:53:00
1:53 AM,51.1,37.9,61,30.27,10.0,NE,5.8,-,N/A,,Clear,40,2013-10-13 06:53:00
2:53 AM,51.1,37.0,59,30.28,10.0,NNE,6.9,-,N/A,,Clear,30,2013-10-13 07:53:00
3:53 AM,50.0,37.0,61,30.28,10.0,NE,4.6,-,N/A,,Clear,40,2013-10-13 08:53:00
4:53 AM,48.9,37.9,66,30.30,10.0,NE,5.8,-,N/A,,Clear,40,2013-10-13 09:53:00
5:53 AM,48.0,37.0,66,30.31,10.0,ENE,6.9,-,N/A,,Clear,60,2013-10-13 10:53:00
6:53 AM,48.0,37.0,66,30.33,10.0,ENE,5.8,-,N/A,,Clear,70,2013-10-13 11:53:00
7:53 AM,48.0,37.0,66,30.35,10.0,ENE,6.9,-,N/A,,Clear,70,2013-10-13 12:53:00
8:53 AM,52.0,37.9,59,30.38,10.0,ENE,6.9,-,N/A,,Clear,70,2013-10-13 13:53:00
9:53 AM,57.9,37.9,47,30.39,10.0,East,5.8,-,N/A,,Clear,90,2013-10-13 14:53:00
10:53 AM,62.1,37.9,41,30.40,10.0,East,8.1,-,N/A,,Clear,100,2013-10-13 15:53:00
11:53 AM,64.9,34.0,32,30.39,10.0,ENE,10.4,-,N/A,,Clear,70,2013-10-13 16:53:00
12:53 PM,68.0,33.1,27,30.38,10.0,ENE,12.7,21.9,N/A,,Clear,60,2013-10-13 17:53:00
1:53 PM,68.0,35.1,30,30.35,10.0,ENE,11.5,-,N/A,,Clear,60,2013-10-13 18:53:00
2:53 PM,69.1,35.1,29,30.31,10.0,East,12.7,18.4,N/A,,Clear,90,2013-10-13 19:53:00
3:53 PM,70.0,34.0,27,30.30,10.0,East,9.2,-,N/A,,Clear,100,2013-10-13 20:53:00
4:53 PM,69.1,35.1,29,30.28,10.0,East,9.2,-,N/A,,Clear,80,2013-10-13 21:53:00
5:53 PM,66.9,35.1,31,30.28,10.0,East,5.8,-,N/A,,Scattered Clouds,80,2013-10-13 22:53:00
6:53 PM,62.1,35.1,37,30.29,10.0,East,5.8,-,N/A,,Clear,80,2013-10-13 23:53:00
7:53 PM,60.1,36.0,41,30.29,10.0,East,5.8,-,N/A,,Clear,80,2013-10-14 00:53:00
8:53 PM,57.9,35.1,42,30.30,10.0,East,5.8,-,N/A,,Clear,90,2013-10-14 01:53:00
9:53 PM,57.0,35.1,44,30.30,10.0,East,8.1,-,N/A,,Clear,90,2013-10-14 02:53:00
10:53 PM,55.9,34.0,44,30.30,10.0,East,6.9,-,N/A,,Clear,90,2013-10-14 03:53:00
11:53 PM,55.0,33.1,43,30.29,10.0,East,6.9,-,N/A,,Partly Cloudy,90,2013-10-14 04:53:00